Mercer County Airport
KBLF : now visible

Airfield :











YOU CAN JOIN US ON...

 
LOGIN :

Register | Disclaimer

   EN    FR    IT 

 









Legend :    VFR   Marginal VFR   IFR   Intensive IFR   Very Intensive IFR
Visi :
Ceiling :
>= 8 km
>= 3000ft
5 to 8 km
1000 to 3000 ft
1500m to 5 km
500 to 1000 ft
800 to 1500m
200 to 500 ft
< 800m
< 200 ft
Symbols :   Thunderstorms  Fog  Heavy snow  Heavy precipitations  Wind > 20 kt






- Airport Elevation : 2857 ft
- IATA code : BLF


KBLF - Mercer County

CURRENT METAR :
  • 261152Z AUTO 00000KT 1/4SM FG VV002 12/12 A3012 RMK AO2 SLP182 70048 T01220122 10133 20122 52014

EXPIRED METARs :
  • 261126Z AUTO 00000KT 1/4SM FG VV002 12/12 A3011 RMK AO2 T01220122
  • 261107Z AUTO 00000KT 3/4SM BR VV003 12/12 A3010 RMK AO2 T01220122
  • 261055Z AUTO 00000KT 1 3/4SM BR OVC002 12/12 A3010 RMK AO2 VIS 1V4 T01220122
  • 261026Z AUTO 02003KT 10SM OVC004 13/13 A3009 RMK AO2 T01280128
  • 260952Z AUTO 00000KT 10SM OVC006 13/13 A3009 RMK AO2 SLP174 T01280128
  • 260927Z AUTO 00000KT 4SM BR FEW001 OVC007 12/12 A3009 RMK AO2 T01220122
  • 260920Z AUTO 00000KT 1 1/4SM BR FEW001 OVC007 12/12 A3009 RMK AO2 VIS 1/2V5 T01220122
  • 260910Z AUTO 01003KT 3/4SM BR FEW001 OVC007 12/12 A3008 RMK AO2 T01220122
  • 260901Z AUTO 00000KT 1 3/4SM BR SCT002 OVC007 13/13 A3008 RMK AO2 VIS 3/4V5 T01280128

TAF KBLF
Valid from the 26 at 12:00 until the 27 at 12:00 UTC


261133Z 2612/2712 00000KT 1/4SM FG VV002
FM261330 00000KT 6SM BR BKN011
FM261600 00000KT P6SM BKN024
FM261800 VRB02KT P6SM BKN045
FM270100 00000KT 6SM BR SCT100
FM270600 VRB02KT P6SM FEW005
FM271100 VRB02KT P6SM SCT003
KZID FIR / North America



MET'MAP, your aeronautical weather chart ! - Copyright ORBIFLY December 2007 - Disclaimer

ORBIFLY MET'MAP TEAM :

Programming & Development : Alexandra Zaïnal
Concept & original design : Baudouin d'Aumeries
Assistance for programming : Marc-Olivier Méhu
Technical & hardware support : Manuel Goepfert

Contact : metmap@orbifly.com




SOURCES & CREDITS :

   NOAA       Earth
Advisory